Time;durP1;ratioP1;P1;durP2;ratioP2;P2;SDS_P1;SDS_P2;PMS_P1;PMS_P2;Temp;Humidity;BMP_temperature;BMP_pressure;BME280_temperature;BME280_humidity;BME280_pressure;Samples;Min_cycle;Max_cycle;Signal;HPM_P1;HPM_P2
2023/01/07 00:01:28;;;;;;;17.53;11.97;;;;;;;7.14;100.00;99130.31;2222460;80;21458;-83
2023/01/07 00:04:28;;;;;;;13.90;12.40;;;;;;;7.13;100.00;99126.84;2222675;80;20924;-82
2023/01/07 00:07:29;;;;;;;17.83;12.33;;;;;;;7.12;100.00;99121.59;2222482;80;21401;-83
2023/01/07 00:10:29;;;;;;;15.37;12.80;;;;;;;7.11;100.00;99122.44;2222630;80;20951;-82
2023/01/07 00:13:30;;;;;;;17.27;12.60;;;;;;;7.11;100.00;99131.10;2222831;80;20963;-81
2023/01/07 00:16:30;;;;;;;14.57;12.00;;;;;;;7.10;100.00;99132.35;2222102;80;20947;-81
2023/01/07 00:19:30;;;;;;;15.37;12.47;;;;;;;7.09;100.00;99137.08;2222790;80;20908;-81
2023/01/07 00:22:31;;;;;;;18.43;12.77;;;;;;;7.07;100.00;99145.23;2222539;80;21361;-81
2023/01/07 00:25:31;;;;;;;14.90;12.53;;;;;;;7.08;100.00;99143.98;2222479;80;21035;-81
2023/01/07 00:28:32;;;;;;;19.77;13.37;;;;;;;7.06;100.00;99147.37;2221972;80;20992;-82
2023/01/07 00:31:32;;;;;;;14.43;12.33;;;;;;;7.05;100.00;99152.10;2221765;80;20916;-82
2023/01/07 00:34:33;;;;;;;15.23;12.27;;;;;;;7.06;100.00;99149.97;2221968;80;21027;-81
2023/01/07 00:37:48;;;;;;;15.23;12.83;;;;;;;7.05;100.00;99150.80;2221804;80;20951;-82
2023/01/07 00:40:48;;;;;;;15.40;12.50;;;;;;;7.03;100.00;99158.55;2221765;80;20988;-82
2023/01/07 00:43:49;;;;;;;13.80;12.40;;;;;;;7.03;100.00;99162.44;2222248;80;20919;-81
2023/01/07 00:46:49;;;;;;;17.53;12.67;;;;;;;7.01;100.00;99156.31;2222461;80;21300;-82
2023/01/07 00:49:49;;;;;;;16.63;12.90;;;;;;;7.00;100.00;99158.45;2222505;80;20973;-81
2023/01/07 00:52:50;;;;;;;14.67;12.90;;;;;;;7.02;100.00;99169.34;2222152;80;21075;-81
2023/01/07 00:55:50;;;;;;;16.70;12.63;;;;;;;7.01;100.00;99174.48;2221897;80;20999;-81
2023/01/07 00:58:51;;;;;;;16.03;11.90;;;;;;;7.00;100.00;99172.30;2222282;80;20973;-82
2023/01/07 01:01:51;;;;;;;13.50;12.10;;;;;;;6.99;100.00;99170.96;2222313;80;21268;-81
2023/01/07 01:04:51;;;;;;;15.87;13.50;;;;;;;6.97;100.00;99172.21;2222175;80;20928;-81
2023/01/07 01:07:52;;;;;;;14.43;12.93;;;;;;;6.95;100.00;99172.58;2222170;80;20956;-81
2023/01/07 01:10:52;;;;;;;15.03;13.43;;;;;;;6.93;100.00;99172.91;2222233;80;21264;-82
2023/01/07 01:13:53;;;;;;;16.07;13.37;;;;;;;6.89;100.00;99184.03;2222093;80;20908;-82
2023/01/07 01:16:53;;;;;;;18.23;15.03;;;;;;;6.84;100.00;99188.20;2222242;80;20948;-82
2023/01/07 01:19:53;;;;;;;16.60;14.07;;;;;;;6.82;100.00;99192.45;2221834;80;21359;-82
2023/01/07 01:22:54;;;;;;;20.20;14.73;;;;;;;6.83;100.00;99189.44;2221880;80;20992;-82
2023/01/07 01:25:54;;;;;;;19.07;12.97;;;;;;;6.84;100.00;99197.69;2221657;80;21319;-81
2023/01/07 01:28:55;;;;;;;16.43;12.83;;;;;;;6.84;100.00;99194.69;2221993;80;20916;-81
2023/01/07 01:31:55;;;;;;;15.30;13.67;;;;;;;6.85;100.00;99195.14;2222065;80;20969;-81
2023/01/07 01:34:55;;;;;;;17.93;13.50;;;;;;;6.86;100.00;99190.42;2221934;80;20877;-81
2023/01/07 01:37:56;;;;;;;14.70;13.20;;;;;;;6.82;100.00;99187.27;2222046;80;20904;-81
2023/01/07 01:40:56;;;;;;;17.47;14.10;;;;;;;6.78;100.00;99197.08;2222018;80;20912;-81
2023/01/07 01:43:56;;;;;;;14.43;12.57;;;;;;;6.75;100.00;99205.18;2221904;80;20920;-81
2023/01/07 01:46:57;;;;;;;16.10;13.50;;;;;;;6.70;100.00;99206.33;2222114;80;20956;-81
2023/01/07 01:49:57;;;;;;;14.33;12.83;;;;;;;6.68;100.00;99196.31;2222036;80;21308;-81
2023/01/07 01:52:58;;;;;;;13.60;12.03;;;;;;;6.64;100.00;99193.16;2221890;80;20920;-82
2023/01/07 01:55:58;;;;;;;15.20;13.57;;;;;;;6.57;100.00;99188.19;2221933;80;21044;-81
2023/01/07 01:58:58;;;;;;;15.43;13.27;;;;;;;6.52;100.00;99188.45;2222043;80;20947;-82
2023/01/07 02:01:59;;;;;;;15.67;13.87;;;;;;;6.49;100.00;99190.94;2222184;80;20916;-82
2023/01/07 02:04:59;;;;;;;16.30;13.80;;;;;;;6.48;100.00;99196.08;2222169;80;20884;-82
2023/01/07 02:08:00;;;;;;;15.07;13.27;;;;;;;6.50;100.00;99194.41;2222120;80;21312;-81
2023/01/07 02:11:00;;;;;;;15.50;13.87;;;;;;;6.52;100.00;99198.82;2222366;80;20868;-82
2023/01/07 02:14:00;;;;;;;15.87;13.00;;;;;;;6.56;100.00;99198.09;2222525;80;20953;-81
2023/01/07 02:17:01;;;;;;;18.37;14.83;;;;;;;6.58;100.00;99195.55;2222482;80;21335;-82
2023/01/07 02:20:01;;;;;;;17.10;14.53;;;;;;;6.59;100.00;99196.02;2222432;80;20936;-82
2023/01/07 02:23:02;;;;;;;17.80;13.77;;;;;;;6.59;100.00;99195.59;2222710;80;20929;-82
2023/01/07 02:26:02;;;;;;;16.73;14.93;;;;;;;6.60;100.00;99190.88;2213170;80;21363;-82
2023/01/07 02:29:03;;;;;;;16.10;14.50;;;;;;;6.61;100.00;99187.87;2211869;81;20976;-81
2023/01/07 02:32:03;;;;;;;18.27;15.77;;;;;;;6.62;100.00;99190.93;2212464;81;20911;-82
2023/01/07 02:35:03;;;;;;;18.77;15.70;;;;;;;6.64;100.00;99184.08;2212366;81;20945;-81
2023/01/07 02:38:04;;;;;;;17.37;15.37;;;;;;;6.62;100.00;99184.03;2212344;81;20889;-82
2023/01/07 02:41:04;;;;;;;20.50;16.43;;;;;;;6.61;100.00;99187.45;2212197;81;20936;-82
2023/01/07 02:44:04;;;;;;;19.07;15.97;;;;;;;6.59;100.00;99194.30;2212151;81;20948;-82
2023/01/07 02:47:05;;;;;;;17.23;15.47;;;;;;;6.57;100.00;99200.27;2212466;81;21328;-81
2023/01/07 02:50:05;;;;;;;19.70;15.50;;;;;;;6.52;100.00;99206.59;2212185;81;20950;-81
2023/01/07 02:53:06;;;;;;;17.57;15.77;;;;;;;6.49;100.00;99197.84;2211806;81;20996;-82
2023/01/07 02:56:06;;;;;;;19.23;14.83;;;;;;;6.47;100.00;99203.39;2211698;81;21383;-82
2023/01/07 02:59:07;;;;;;;17.37;14.67;;;;;;;6.44;100.00;99200.69;2211941;81;20963;-82
2023/01/07 03:02:08;;;;;;;15.80;14.07;;;;;;;6.43;100.00;99210.19;2211947;81;21287;-82
2023/01/07 03:05:07;;;;;;;15.63;14.03;;;;;;;6.44;100.00;99209.35;2211695;81;20921;-81
2023/01/07 03:08:08;;;;;;;13.93;12.53;;;;;;;6.45;100.00;99210.23;2211833;81;20956;-81
2023/01/07 03:11:08;;;;;;;16.33;14.73;;;;;;;6.42;100.00;99211.42;2211760;81;20900;-82
2023/01/07 03:14:08;;;;;;;16.80;14.90;;;;;;;6.39;100.00;99222.58;2211687;81;20999;-81
2023/01/07 03:17:09;;;;;;;17.77;15.27;;;;;;;6.34;100.00;99226.31;2211946;81;20925;-82
2023/01/07 03:20:09;;;;;;;17.40;15.47;;;;;;;6.30;100.00;99222.27;2211701;81;20952;-81
2023/01/07 03:23:10;;;;;;;18.70;16.70;;;;;;;6.25;100.00;99217.33;2211293;81;21427;-82
2023/01/07 03:26:11;;;;;;;19.83;17.73;;;;;;;6.22;100.00;99218.11;2219999;80;21026;-81
2023/01/07 03:29:11;;;;;;;18.43;16.33;;;;;;;6.18;100.00;99221.42;2222043;80;20865;-81
2023/01/07 03:32:12;;;;;;;18.77;16.77;;;;;;;6.17;100.00;99228.73;2221846;80;20961;-81
2023/01/07 03:35:12;;;;;;;18.67;16.77;;;;;;;6.14;100.00;99222.14;2221849;80;20912;-81
2023/01/07 03:38:12;;;;;;;20.50;17.60;;;;;;;6.12;100.00;99226.80;2222060;80;20913;-81
2023/01/07 03:42:38;;;;;;;23.33;19.17;;;;;;;6.10;100.00;99229.34;2221804;80;21340;-81
2023/01/07 03:44:13;;;;;;;18.77;16.87;;;;;;;6.09;100.00;99228.88;2221860;80;20896;-82
2023/01/07 03:47:14;;;;;;;18.27;16.27;;;;;;;6.09;100.00;99226.69;2222095;80;20925;-81
2023/01/07 03:50:14;;;;;;;20.20;16.10;;;;;;;6.09;100.00;99226.28;2221874;80;21324;-81
2023/01/07 03:53:14;;;;;;;17.03;15.23;;;;;;;6.05;100.00;99221.37;2221834;80;20936;-81
2023/01/07 03:56:15;;;;;;;15.87;14.27;;;;;;;6.03;100.00;99220.43;2221849;80;20952;-81
2023/01/07 03:59:15;;;;;;;16.03;14.13;;;;;;;6.00;100.00;99229.39;2221947;80;21380;-81
2023/01/07 04:02:16;;;;;;;16.00;14.40;;;;;;;5.96;100.00;99238.30;2221966;80;20877;-81
2023/01/07 04:05:16;;;;;;;18.97;15.90;;;;;;;5.92;100.00;99232.53;2222127;80;20881;-81
2023/01/07 04:08:16;;;;;;;17.10;15.13;;;;;;;5.89;100.00;99233.69;2221876;80;20965;-81
2023/01/07 04:11:17;;;;;;;16.17;13.73;;;;;;;5.83;100.00;99233.46;2221804;80;20967;-81
2023/01/07 04:14:17;;;;;;;18.93;14.50;;;;;;;5.79;100.00;99241.95;2222181;80;20948;-81
2023/01/07 04:17:18;;;;;;;17.77;15.67;;;;;;;5.76;100.00;99231.06;2222164;80;21336;-81
2023/01/07 04:20:18;;;;;;;20.03;17.90;;;;;;;5.76;100.00;99231.06;2222021;80;20920;-81
2023/01/07 04:23:18;;;;;;;23.93;18.50;;;;;;;5.73;100.00;99232.24;2222189;80;20963;-82
2023/01/07 04:26:19;;;;;;;21.03;18.17;;;;;;;5.73;100.00;99232.24;2221969;80;21079;-82
2023/01/07 04:29:19;;;;;;;24.60;20.17;;;;;;;5.71;100.00;99228.71;2223016;80;20955;-82
2023/01/07 04:32:20;;;;;;;26.90;21.97;;;;;;;5.69;100.00;99229.95;2222885;80;20955;-82
2023/01/07 04:35:20;;;;;;;42.77;24.03;;;;;;;5.66;100.00;99223.78;2222775;80;20987;-83
2023/01/07 04:38:20;;;;;;;21.33;19.10;;;;;;;5.62;100.00;99224.08;2222987;80;20897;-82
2023/01/07 04:41:21;;;;;;;20.83;18.47;;;;;;;5.60;100.00;99224.84;2222577;80;21399;-82
2023/01/07 04:44:21;;;;;;;19.50;17.30;;;;;;;5.57;100.00;99228.61;2223219;80;20921;-83
2023/01/07 04:47:22;;;;;;;25.07;16.97;;;;;;;5.52;100.00;99225.85;2222902;80;20924;-82
2023/01/07 04:50:22;;;;;;;17.07;15.37;;;;;;;5.48;100.00;99238.63;2222988;80;20992;-82
2023/01/07 04:53:22;;;;;;;19.90;13.60;;;;;;;5.43;100.00;99239.74;2222861;80;20932;-82
2023/01/07 04:56:23;;;;;;;15.10;12.77;;;;;;;5.41;100.00;99234.92;2222915;80;21005;-82
2023/01/07 04:59:23;;;;;;;16.10;12.03;;;;;;;5.38;100.00;99233.09;2222783;80;21402;-81
2023/01/07 05:02:24;;;;;;;17.10;12.10;;;;;;;5.35;100.00;99243.33;2222673;80;20968;-81
2023/01/07 05:05:24;;;;;;;14.67;13.10;;;;;;;5.34;100.00;99257.09;2222792;80;20927;-83
2023/01/07 05:08:24;;;;;;;16.93;13.93;;;;;;;5.30;100.00;99252.63;2222257;80;20964;-82
2023/01/07 05:11:25;;;;;;;19.13;16.07;;;;;;;5.29;100.00;99249.98;2222773;80;21003;-83
2023/01/07 05:14:25;;;;;;;18.30;14.83;;;;;;;5.26;100.00;99257.21;2222749;80;20912;-82
2023/01/07 05:17:26;;;;;;;21.93;16.37;;;;;;;5.25;100.00;99261.03;2222496;80;20947;-82
2023/01/07 05:20:26;;;;;;;20.40;18.20;;;;;;;5.29;100.00;99264.22;2222240;80;20979;-83
2023/01/07 05:23:26;;;;;;;16.43;14.73;;;;;;;5.30;100.00;99259.09;2222516;80;21004;-83
2023/01/07 05:26:27;;;;;;;15.40;13.40;;;;;;;5.32;100.00;99256.56;2213622;80;20984;-82
2023/01/07 05:29:27;;;;;;;17.17;13.53;;;;;;;5.34;100.00;99247.16;2211830;81;20973;-83
2023/01/07 05:32:28;;;;;;;17.13;14.33;;;;;;;5.36;100.00;99250.69;2211758;81;20940;-83
2023/01/07 05:35:28;;;;;;;16.47;14.37;;;;;;;5.38;100.00;99258.10;2211814;81;20877;-83
2023/01/07 05:38:28;;;;;;;15.00;11.97;;;;;;;5.39;100.00;99255.98;2211892;81;21304;-83
2023/01/07 05:41:29;;;;;;;13.20;11.80;;;;;;;5.36;100.00;99267.52;2211921;81;20971;-83
2023/01/07 05:44:29;;;;;;;13.60;11.37;;;;;;;5.31;100.00;99259.98;2211889;81;20965;-83
2023/01/07 05:47:29;;;;;;;13.53;11.87;;;;;;;5.20;100.00;99267.33;2211542;81;20928;-82
2023/01/07 05:50:30;;;;;;;12.27;10.27;;;;;;;5.13;100.00;99259.70;2211819;81;20913;-83
2023/01/07 05:53:30;;;;;;;16.53;10.63;;;;;;;5.05;100.00;99267.56;2211883;81;21299;-82
2023/01/07 05:56:31;;;;;;;13.00;11.63;;;;;;;4.95;100.00;99261.55;2211714;81;20940;-83
2023/01/07 05:59:33;;;;;;;12.63;11.30;;;;;;;5.01;100.00;99264.79;2211879;81;21091;-82
2023/01/07 06:02:31;;;;;;;12.53;11.23;;;;;;;5.04;100.00;99272.27;2212052;81;20996;-82
2023/01/07 06:05:32;;;;;;;12.83;11.20;;;;;;;5.09;100.00;99273.33;2211997;81;20935;-83
2023/01/07 06:08:32;;;;;;;12.20;10.83;;;;;;;5.10;100.00;99276.39;2211509;81;20975;-82
2023/01/07 06:11:33;;;;;;;12.43;10.43;;;;;;;5.16;100.00;99268.41;2211175;81;20917;-81
2023/01/07 06:14:33;;;;;;;11.83;10.63;;;;;;;5.15;100.00;99276.98;2211432;81;21311;-81
2023/01/07 06:17:33;;;;;;;12.43;10.70;;;;;;;5.17;100.00;99274.05;2210906;81;21651;-81
2023/01/07 06:20:41;;;;;;;11.47;10.27;;;;;;;5.20;100.00;99280.64;2211182;81;20992;-82
2023/01/07 06:23:39;;;;;;;13.38;10.43;;;;;;;5.24;100.00;99283.86;2190005;81;20916;-82
2023/01/07 06:26:38;;;;;;;11.47;9.60;;;;;;;5.21;100.00;99286.33;2211438;81;21037;-83
2023/01/07 06:29:39;;;;;;;13.83;9.90;;;;;;;5.26;100.00;99296.45;2211401;81;20885;-81
2023/01/07 06:32:39;;;;;;;14.43;9.87;;;;;;;5.30;100.00;99295.75;2211068;81;20936;-82
2023/01/07 06:35:40;;;;;;;12.20;10.10;;;;;;;5.32;100.00;99296.69;2210805;81;21327;-82
2023/01/07 06:38:40;;;;;;;11.83;10.63;;;;;;;5.32;100.00;99300.58;2210967;81;20923;-82
2023/01/07 06:41:40;;;;;;;10.77;9.50;;;;;;;5.32;100.00;99291.10;2211053;81;20944;-82
2023/01/07 06:44:41;;;;;;;9.23;8.33;;;;;;;5.35;100.00;99295.52;2210899;81;20908;-81
2023/01/07 06:47:41;;;;;;;10.37;8.27;;;;;;;5.34;100.00;99297.22;2211711;81;20993;-82
2023/01/07 06:50:42;;;;;;;10.07;9.07;;;;;;;5.30;100.00;99291.86;2211993;81;21335;-82
2023/01/07 06:53:42;;;;;;;12.33;9.43;;;;;;;5.26;100.00;99292.16;2211822;81;20905;-82
2023/01/07 06:56:42;;;;;;;9.70;8.70;;;;;;;5.26;100.00;99298.63;2211530;81;21032;-82
2023/01/07 06:59:43;;;;;;;9.13;8.23;;;;;;;5.23;100.00;99298.91;2211417;81;20905;-82
2023/01/07 07:02:43;;;;;;;9.63;8.57;;;;;;;5.19;100.00;99304.76;2210846;81;20964;-82
2023/01/07 07:05:44;;;;;;;13.43;9.63;;;;;;;5.09;100.00;99304.39;2211459;81;21233;-82
2023/01/07 07:08:44;;;;;;;11.57;9.53;;;;;;;5.01;100.00;99312.25;2211260;81;20901;-82
2023/01/07 07:11:44;;;;;;;13.10;10.60;;;;;;;5.00;100.00;99312.19;2211294;81;20980;-81
2023/01/07 07:14:45;;;;;;;12.27;9.90;;;;;;;5.08;100.00;99312.97;2210939;81;20976;-82
2023/01/07 07:17:45;;;;;;;12.87;10.43;;;;;;;5.16;100.00;99317.16;2210963;81;20920;-81
2023/01/07 07:20:46;;;;;;;12.80;10.90;;;;;;;5.26;100.00;99314.56;2211325;81;20968;-82
2023/01/07 07:23:46;;;;;;;11.03;9.30;;;;;;;5.35;100.00;99320.11;2211795;81;21256;-81
2023/01/07 07:26:46;;;;;;;11.37;9.77;;;;;;;5.41;100.00;99325.13;2211339;80;21014;-82
2023/01/07 07:29:47;;;;;;;12.97;10.27;;;;;;;5.49;100.00;99325.83;2211839;81;20916;-82
2023/01/07 07:32:47;;;;;;;11.63;9.43;;;;;;;5.55;100.00;99323.48;2211394;81;20944;-81
2023/01/07 07:35:47;;;;;;;12.10;9.63;;;;;;;5.62;100.00;99325.08;2211439;81;20919;-82
2023/01/07 07:38:48;;;;;;;14.40;10.57;;;;;;;5.69;100.00;99321.91;2210979;81;20885;-82
2023/01/07 07:41:48;;;;;;;11.37;10.17;;;;;;;5.78;100.00;99320.08;2210986;81;20992;-82
2023/01/07 07:44:49;;;;;;;14.07;10.37;;;;;;;5.88;100.00;99315.71;2210834;81;21154;-82
2023/01/07 07:47:49;;;;;;;13.90;10.80;;;;;;;5.99;100.00;99320.03;2211010;81;20964;-82
2023/01/07 07:50:50;;;;;;;11.33;10.17;;;;;;;6.11;100.00;99316.63;2211261;81;20928;-82
2023/01/07 07:53:50;;;;;;;12.10;10.30;;;;;;;6.22;100.00;99317.03;2211326;81;20952;-81
2023/01/07 07:56:50;;;;;;;15.03;12.70;;;;;;;6.31;100.00;99327.31;2211262;81;21027;-81
2023/01/07 07:59:51;;;;;;;19.87;13.63;;;;;;;6.45;100.00;99329.52;2211176;81;20969;-81
2023/01/07 08:02:51;;;;;;;18.47;15.00;;;;;;;6.58;100.00;99329.13;2210735;80;20928;-80
2023/01/07 08:05:52;;;;;;;19.73;15.03;;;;;;;6.73;100.00;99333.55;2211029;81;20925;-81
2023/01/07 08:08:52;;;;;;;23.87;15.50;;;;;;;6.88;100.00;99331.90;2211172;81;20897;-81
2023/01/07 08:11:52;;;;;;;20.23;14.40;;;;;;;6.99;100.00;99317.19;2211397;81;21340;-82
2023/01/07 08:14:53;;;;;;;19.47;15.07;;;;;;;7.06;100.00;99319.98;2211859;81;20901;-82
2023/01/07 08:17:53;;;;;;;19.03;15.77;;;;;;;7.11;100.00;99317.13;2211783;81;20948;-81
2023/01/07 08:20:54;;;;;;;27.00;16.60;;;;;;;7.09;100.00;99307.11;2211757;81;21344;-82
2023/01/07 08:23:54;;;;;;;24.33;16.93;;;;;;;7.08;100.00;99314.02;2211769;81;20904;-81
2023/01/07 08:26:55;;;;;;;24.57;16.77;;;;;;;7.11;100.00;99312.82;2211260;81;21031;-82
2023/01/07 08:29:55;;;;;;;23.27;16.73;;;;;;;7.17;100.00;99310.84;2211533;81;20897;-82
2023/01/07 08:32:55;;;;;;;21.47;16.27;;;;;;;7.25;100.00;99315.86;2211505;81;20914;-82
2023/01/07 08:35:56;;;;;;;22.63;15.90;;;;;;;7.35;100.00;99316.20;2211946;81;20913;-81
2023/01/07 08:38:56;;;;;;;22.83;18.07;;;;;;;7.42;100.00;99317.28;2212421;81;21257;-83
2023/01/07 08:41:56;;;;;;;24.27;17.40;;;;;;;7.57;100.00;99319.48;2211947;81;20920;-82
2023/01/07 08:44:57;;;;;;;21.90;17.50;;;;;;;7.72;100.00;99316.05;2211862;81;20893;-82
2023/01/07 08:47:57;;;;;;;21.70;18.30;;;;;;;7.89;99.80;99320.08;2211869;81;21076;-82
2023/01/07 08:50:58;;;;;;;22.30;18.27;;;;;;;8.02;99.35;99313.52;2212107;81;20942;-82
2023/01/07 08:53:58;;;;;;;26.30;19.17;;;;;;;8.10;99.14;99315.05;2211916;81;21245;-82
2023/01/07 08:56:58;;;;;;;24.67;18.00;;;;;;;8.19;98.67;99325.30;2211517;81;20987;-82
2023/01/07 08:59:59;;;;;;;24.13;18.17;;;;;;;8.28;98.40;99321.66;2212069;81;20964;-82
2023/01/07 09:02:59;;;;;;;23.33;17.37;;;;;;;8.43;98.00;99330.34;2211842;81;20917;-83
2023/01/07 09:06:00;;;;;;;23.97;17.40;;;;;;;8.58;97.59;99331.19;2211101;81;20940;-82
2023/01/07 09:09:00;;;;;;;18.40;15.63;;;;;;;8.68;97.33;99334.53;2211014;81;20948;-83
2023/01/07 09:12:00;;;;;;;19.93;16.27;;;;;;;8.77;96.10;99329.98;2211106;81;20913;-82
2023/01/07 09:15:01;;;;;;;20.23;15.93;;;;;;;8.85;96.25;99335.86;2211322;81;20893;-82
2023/01/07 09:18:05;;;;;;;18.47;14.83;;;;;;;8.88;95.64;99339.84;2211401;80;20909;-82
2023/01/07 09:21:05;;;;;;;18.50;14.67;;;;;;;8.79;94.86;99342.20;2211911;81;21079;-83
2023/01/07 09:24:05;;;;;;;28.67;17.67;;;;;;;8.66;95.58;99331.39;2211965;81;20960;-83
2023/01/07 09:27:07;;;;;;;29.63;18.07;;;;;;;8.63;95.68;99337.39;2188239;81;20988;-83
2023/01/07 09:30:08;;;;;;;27.83;18.77;;;;;;;8.54;95.03;99335.84;2211876;81;20913;-83
2023/01/07 09:33:08;;;;;;;46.67;19.30;;;;;;;8.52;95.73;99340.13;2211455;81;20909;-83
2023/01/07 09:36:09;;;;;;;24.73;18.03;;;;;;;8.61;96.12;99332.56;2211322;81;20877;-82
2023/01/07 09:39:09;;;;;;;18.33;14.93;;;;;;;8.76;96.07;99328.23;2212045;81;20905;-83
2023/01/07 09:42:09;;;;;;;17.30;15.30;;;;;;;8.86;95.83;99329.81;2211557;81;20940;-81
2023/01/07 09:45:12;;;;;;;20.70;16.50;;;;;;;8.93;95.51;99324.34;2188697;81;21332;-83
2023/01/07 09:48:12;;;;;;;19.40;15.07;;;;;;;9.02;95.22;99323.70;2211919;81;20892;-82
2023/01/07 09:51:13;;;;;;;39.37;18.10;;;;;;;9.00;94.57;99324.96;2211043;81;20905;-83
2023/01/07 09:54:13;;;;;;;20.63;17.00;;;;;;;9.35;100.00;99314.11;2211336;81;21352;-84
2023/01/07 09:57:13;;;;;;;18.50;16.13;;;;;;;11.86;100.00;99299.91;2211127;81;20985;-84
2023/01/07 10:00:14;;;;;;;18.32;14.30;;;;;;;14.06;100.00;99291.63;2211121;81;20988;-82
2023/01/07 10:03:14;;;;;;;18.48;13.45;;;;;;;14.45;90.15;99279.13;2211680;81;21296;-82
2023/01/07 10:06:15;;;;;;;16.70;13.15;;;;;;;13.31;83.77;99284.13;2210950;81;20944;-81
2023/01/07 10:09:15;;;;;;;15.38;13.28;;;;;;;12.47;82.70;99283.70;2211158;81;20965;-82
2023/01/07 10:12:20;;;;;;;19.45;13.10;;;;;;;11.88;82.97;99289.47;2211177;81;20909;-82
2023/01/07 10:15:18;;;;;;;18.82;14.47;;;;;;;11.33;83.23;99286.01;2189537;81;21075;-82
2023/01/07 10:18:18;;;;;;;25.10;13.13;;;;;;;11.00;84.47;99279.34;2212125;81;20928;-82
2023/01/07 10:21:18;;;;;;;17.85;14.45;;;;;;;10.77;84.98;99281.56;2212174;81;21272;-85
2023/01/07 10:24:19;;;;;;;16.82;13.13;;;;;;;11.17;99.73;99283.12;2212333;81;20941;-84
2023/01/07 10:27:19;;;;;;;14.30;11.70;;;;;;;13.35;100.00;99279.78;2219233;80;21079;-84
2023/01/07 10:30:20;;;;;;;16.35;11.63;;;;;;;15.15;92.10;99266.14;2223128;80;20960;-84
2023/01/07 10:33:23;;;;;;;11.55;10.35;;;;;;;16.18;91.66;99258.54;2223250;80;20896;-83
2023/01/07 10:36:20;;;;;;;12.37;9.93;;;;;;;16.94;86.07;99255.98;2223606;80;20963;-85
2023/01/07 10:39:21;;;;;;;14.00;9.60;;;;;;;17.51;83.41;99249.37;2223477;80;20932;-84
2023/01/07 10:42:21;;;;;;;14.95;10.75;;;;;;;18.06;80.75;99254.96;2223728;80;20873;-84
2023/01/07 10:45:23;;;;;;;14.03;10.65;;;;;;;18.36;78.69;99255.51;2223729;80;20947;-84
2023/01/07 10:48:22;;;;;;;12.58;10.80;;;;;;;18.54;71.09;99261.00;2223623;80;20944;-84
2023/01/07 10:51:22;;;;;;;12.37;10.75;;;;;;;18.65;71.95;99257.34;2223634;80;21233;-84
2023/01/07 10:54:23;;;;;;;13.85;10.35;;;;;;;18.76;69.97;99255.86;2223222;80;20916;-83
2023/01/07 10:57:23;;;;;;;12.23;9.88;;;;;;;18.88;69.23;99250.39;2222790;80;20983;-84
2023/01/07 11:00:24;;;;;;;11.08;9.80;;;;;;;18.98;67.46;99253.77;2222629;80;21392;-84
2023/01/07 11:03:24;;;;;;;9.10;7.90;;;;;;;19.06;68.19;99243.94;2222800;80;20925;-84
2023/01/07 11:06:24;;;;;;;11.30;9.85;;;;;;;19.20;66.74;99244.63;2222569;80;20972;-84
2023/01/07 11:09:25;;;;;;;12.07;10.15;;;;;;;19.28;65.53;99246.69;2221329;80;21308;-81
2023/01/07 11:12:25;;;;;;;10.82;9.73;;;;;;;17.78;59.77;99238.55;2221644;80;20976;-82
2023/01/07 11:15:25;;;;;;;10.93;9.75;;;;;;;16.18;60.37;99243.61;2220596;80;20916;-80
2023/01/07 11:18:26;;;;;;;14.05;11.03;;;;;;;15.03;61.83;99239.41;2220725;80;20964;-82
2023/01/07 11:21:26;;;;;;;12.68;10.43;;;;;;;14.15;63.47;99234.80;2220917;80;20975;-82
2023/01/07 11:24:27;;;;;;;12.78;11.35;;;;;;;13.41;64.88;99244.43;2221082;80;20963;-81
2023/01/07 11:27:27;;;;;;;12.03;10.48;;;;;;;12.88;66.29;99234.77;2221256;80;21383;-82
2023/01/07 11:30:28;;;;;;;10.32;9.28;;;;;;;12.47;67.62;99225.22;2220908;80;20928;-81
2023/01/07 11:33:28;;;;;;;16.82;10.70;;;;;;;12.17;68.68;99231.00;2221729;80;20960;-82
2023/01/07 11:36:28;;;;;;;13.22;9.10;;;;;;;11.82;69.59;99226.61;2221970;80;21288;-82
2023/01/07 11:39:29;;;;;;;13.22;10.25;;;;;;;11.61;70.53;99224.55;2221970;80;20991;-81
2023/01/07 11:42:38;;;;;;;13.18;9.63;;;;;;;11.46;71.55;99211.72;2221745;80;20976;-82
2023/01/07 11:45:38;;;;;;;13.58;9.40;;;;;;;11.31;71.92;99211.50;2221616;80;21296;-82
2023/01/07 11:48:41;;;;;;;9.93;8.93;;;;;;;11.13;72.76;99212.50;2221863;80;20936;-82
2023/01/07 11:51:39;;;;;;;10.38;9.13;;;;;;;10.92;73.16;99212.16;2222074;80;20968;-82
2023/01/07 11:54:40;;;;;;;14.47;10.32;;;;;;;10.75;73.88;99206.23;2221703;80;20928;-81
2023/01/07 11:57:41;;;;;;;15.83;11.45;;;;;;;10.63;74.55;99207.33;2221922;80;21036;-81
2023/01/07 12:00:41;;;;;;;15.88;11.93;;;;;;;10.45;74.89;99204.40;2221901;80;21296;-81
2023/01/07 12:03:42;;;;;;;17.45;13.90;;;;;;;10.31;75.47;99199.32;2221901;80;21011;-81
2023/01/07 12:06:41;;;;;;;15.87;13.83;;;;;;;10.18;76.04;99198.18;2222388;80;20896;-81
2023/01/07 12:09:42;;;;;;;18.92;13.10;;;;;;;10.18;76.56;99197.75;2222158;80;20984;-82
2023/01/07 12:12:42;;;;;;;16.77;13.30;;;;;;;10.18;77.23;99193.84;2222378;80;20873;-82
2023/01/07 12:15:43;;;;;;;17.83;13.37;;;;;;;10.16;77.54;99196.84;2222002;80;20951;-82
2023/01/07 12:18:43;;;;;;;18.00;12.70;;;;;;;10.14;77.97;99189.84;2222326;80;21296;-82
2023/01/07 12:21:43;;;;;;;15.83;12.47;;;;;;;10.04;77.95;99190.09;2222256;80;20999;-82
2023/01/07 12:24:44;;;;;;;15.40;12.63;;;;;;;9.89;78.10;99185.45;2222454;80;20905;-82
2023/01/07 12:27:44;;;;;;;11.33;8.97;;;;;;;9.82;78.58;99182.70;2215209;80;21044;-81
2023/01/07 12:30:46;;;;;;;9.37;8.40;;;;;;;9.81;79.21;99174.42;2212140;81;20955;-82
2023/01/07 12:33:45;;;;;;;12.50;10.40;;;;;;;9.70;79.80;99178.54;2212084;81;20960;-81
2023/01/07 12:36:45;;;;;;;11.70;10.47;;;;;;;9.61;79.92;99171.83;2211915;81;20908;-82
2023/01/07 12:39:46;;;;;;;15.03;10.57;;;;;;;9.58;80.24;99174.83;2212098;81;20972;-82
2023/01/07 12:42:49;;;;;;;11.27;8.07;;;;;;;9.55;80.53;99166.95;2212146;81;20944;-82
2023/01/07 12:45:46;;;;;;;10.53;8.10;;;;;;;9.57;81.02;99173.50;2212290;81;20877;-82
2023/01/07 12:48:47;;;;;;;9.13;8.03;;;;;;;9.57;81.41;99171.77;2212248;81;21030;-82
2023/01/07 12:51:47;;;;;;;9.70;8.10;;;;;;;9.64;81.71;99170.17;2212296;81;20912;-82
2023/01/07 12:54:49;;;;;;;11.63;10.03;;;;;;;9.67;81.87;99170.23;2211829;81;20928;-81
2023/01/07 12:57:48;;;;;;;13.33;9.30;;;;;;;9.72;81.87;99169.02;2212354;81;20999;-82
2023/01/07 13:00:48;;;;;;;12.70;10.00;;;;;;;9.79;82.03;99170.48;2212446;81;21308;-83
2023/01/07 13:03:49;;;;;;;11.23;10.00;;;;;;;10.59;100.00;99162.87;2212631;81;20921;-83
2023/01/07 13:06:49;;;;;;;12.33;10.33;;;;;;;12.91;100.00;99153.58;2212555;81;20920;-83
2023/01/07 13:09:50;;;;;;;10.23;9.23;;;;;;;14.84;96.09;99150.91;2211902;81;20897;-83
2023/01/07 13:12:50;;;;;;;13.13;9.60;;;;;;;16.19;89.22;99145.28;2211872;81;20933;-83
2023/01/07 13:15:50;;;;;;;10.93;8.05;;;;;;;17.18;83.65;99144.55;2212277;81;20924;-83
2023/01/07 13:18:51;;;;;;;11.45;7.92;;;;;;;17.88;78.94;99145.58;2212329;81;20961;-84
2023/01/07 13:21:51;;;;;;;10.55;8.70;;;;;;;18.23;75.77;99142.49;2211961;81;20968;-83
2023/01/07 13:24:52;;;;;;;9.85;8.53;;;;;;;18.66;73.70;99137.91;2210584;81;21376;-83
2023/01/07 13:27:52;;;;;;;11.55;8.43;;;;;;;19.07;70.91;99132.83;2211280;81;21007;-83
2023/01/07 13:30:52;;;;;;;9.93;8.60;;;;;;;19.24;66.43;99133.84;2211105;81;20951;-83
2023/01/07 13:33:53;;;;;;;9.43;7.85;;;;;;;19.43;67.07;99136.14;2211050;81;21438;-83
2023/01/07 13:36:53;;;;;;;14.18;8.85;;;;;;;19.58;65.83;99131.91;2211305;81;20889;-83
2023/01/07 13:39:54;;;;;;;11.43;8.15;;;;;;;19.73;64.78;99131.14;2211202;81;21504;-83
2023/01/07 13:42:54;;;;;;;9.68;7.60;;;;;;;19.90;62.81;99128.59;2212150;81;20977;-84
2023/01/07 13:45:54;;;;;;;10.18;8.28;;;;;;;19.96;63.07;99126.72;2212393;81;20910;-83
2023/01/07 13:48:58;;;;;;;11.65;8.90;;;;;;;20.06;62.62;99127.39;2212005;81;20928;-83
2023/01/07 13:51:58;;;;;;;10.15;8.30;;;;;;;20.10;60.50;99113.62;2212348;81;20959;-84